Time;durP1;ratioP1;P1;durP2;ratioP2;P2;SDS_P1;SDS_P2;PMS_P1;PMS_P2;Temp;Humidity;BMP_temperature;BMP_pressure;BME280_temperature;BME280_humidity;BME280_pressure;Samples;Min_cycle;Max_cycle;Signal;HPM_P1;HPM_P2
2023/11/22 00:01:53;;;;;;;12.10;11.80;;;6.30;99.90;;;;;;5074933;28;20463;-70
2023/11/22 00:04:20;;;;;;;11.70;11.40;;;6.30;99.90;;;;;;5087626;28;20539;-70
2023/11/22 00:06:47;;;;;;;11.53;11.23;;;6.20;99.90;;;;;;5090991;28;20458;-70
2023/11/22 00:09:15;;;;;;;12.00;11.70;;;6.20;99.90;;;;;;5087380;28;20537;-70
2023/11/22 00:11:43;;;;;;;11.43;11.13;;;6.20;99.90;;;;;;5091091;28;20574;-69
2023/11/22 00:14:09;;;;;;;11.90;11.60;;;6.20;99.90;;;;;;5083559;28;20459;-69
2023/11/22 00:16:39;;;;;;;12.03;11.73;;;6.20;99.90;;;;;;5078705;28;20531;-69
2023/11/22 00:19:07;;;;;;;11.50;11.20;;;6.30;99.90;;;;;;5082385;28;20842;-69
2023/11/22 00:21:35;;;;;;;11.17;10.87;;;6.30;99.90;;;;;;5090752;28;20520;-69
2023/11/22 00:24:04;;;;;;;10.93;10.63;;;6.20;99.90;;;;;;5090423;28;20485;-70
2023/11/22 00:26:32;;;;;;;11.13;10.83;;;6.20;99.90;;;;;;5069812;28;21247;-70
2023/11/22 00:29:00;;;;;;;11.47;11.17;;;6.20;99.90;;;;;;5079136;28;20546;-70
2023/11/22 00:31:27;;;;;;;11.87;11.57;;;6.20;99.90;;;;;;5089988;28;20474;-70
2023/11/22 00:33:54;;;;;;;12.20;11.90;;;6.20;99.90;;;;;;5080797;28;20461;-70
2023/11/22 00:36:21;;;;;;;11.70;11.40;;;6.20;99.90;;;;;;5089681;28;20458;-70
2023/11/22 00:38:48;;;;;;;11.97;11.67;;;6.20;99.90;;;;;;5080477;28;20539;-70
2023/11/22 00:41:15;;;;;;;11.87;11.57;;;6.30;99.90;;;;;;5090028;28;20458;-70
2023/11/22 00:43:42;;;;;;;12.70;12.30;;;6.30;99.90;;;;;;5085250;28;20487;-69
2023/11/22 00:46:10;;;;;;;11.87;11.57;;;6.30;99.90;;;;;;5096309;28;20597;-70
2023/11/22 00:48:37;;;;;;;12.13;11.83;;;6.20;99.90;;;;;;5084822;28;20451;-70
2023/11/22 00:51:08;;;;;;;11.80;11.50;;;6.30;99.90;;;;;;5075766;28;20840;-70
2023/11/22 00:53:36;;;;;;;11.43;11.13;;;6.30;99.90;;;;;;5077476;28;20690;-69
2023/11/22 00:56:03;;;;;;;11.93;11.63;;;6.30;99.90;;;;;;5087180;28;20530;-70
2023/11/22 00:58:30;;;;;;;11.10;10.80;;;6.20;99.90;;;;;;5075739;28;20462;-71
2023/11/22 01:00:57;;;;;;;12.57;12.17;;;6.10;99.90;;;;;;5087775;28;20486;-69
2023/11/22 01:03:25;;;;;;;12.50;12.10;;;6.10;99.90;;;;;;5082402;28;20467;-70
2023/11/22 01:05:52;;;;;;;12.00;11.70;;;6.10;99.90;;;;;;5085178;28;20454;-70
2023/11/22 01:08:20;;;;;;;12.87;12.47;;;6.00;99.90;;;;;;5090421;28;20462;-70
2023/11/22 01:10:47;;;;;;;12.60;12.20;;;6.00;99.90;;;;;;5085127;28;20455;-70
2023/11/22 01:13:14;;;;;;;12.00;11.70;;;6.00;99.90;;;;;;5082672;28;20454;-70
2023/11/22 01:15:41;;;;;;;12.53;12.13;;;6.00;99.90;;;;;;5084418;28;20896;-70
2023/11/22 01:18:08;;;;;;;12.53;12.13;;;6.00;99.90;;;;;;5075090;28;20985;-69
2023/11/22 01:20:37;;;;;;;12.40;12.10;;;6.00;99.90;;;;;;5080902;28;20813;-70
2023/11/22 01:23:04;;;;;;;11.80;11.50;;;6.00;99.90;;;;;;5089867;28;20514;-69
2023/11/22 01:25:30;;;;;;;11.87;11.57;;;6.00;99.90;;;;;;5070192;28;20928;-70
2023/11/22 01:27:57;;;;;;;12.43;12.10;;;6.00;99.90;;;;;;5083558;28;20945;-70
2023/11/22 01:30:24;;;;;;;12.30;12.00;;;5.90;99.90;;;;;;5081628;28;20994;-70
2023/11/22 01:32:51;;;;;;;11.90;11.60;;;5.90;99.90;;;;;;5093542;28;20482;-70
2023/11/22 01:35:18;;;;;;;12.33;12.03;;;5.90;99.90;;;;;;5086941;28;20949;-70
2023/11/22 01:37:46;;;;;;;13.00;12.60;;;5.90;99.90;;;;;;5082666;28;20459;-69
2023/11/22 01:40:13;;;;;;;12.87;12.47;;;5.80;99.90;;;;;;5088475;28;20459;-70
2023/11/22 01:42:40;;;;;;;13.10;12.70;;;5.90;99.90;;;;;;5090503;28;20457;-70
2023/11/22 01:45:07;;;;;;;12.80;12.40;;;5.90;99.90;;;;;;5078965;28;20839;-69
2023/11/22 01:47:35;;;;;;;13.20;12.80;;;5.80;99.90;;;;;;5088905;28;20469;-69
2023/11/22 01:50:02;;;;;;;13.70;13.30;;;5.70;99.90;;;;;;5072501;28;20462;-69
2023/11/22 01:52:31;;;;;;;12.90;12.50;;;5.70;99.90;;;;;;5086567;28;20568;-69
2023/11/22 01:55:00;;;;;;;12.80;12.40;;;5.60;99.90;;;;;;5085387;28;20456;-70
2023/11/22 01:57:28;;;;;;;13.43;13.03;;;5.50;99.90;;;;;;5087224;28;20784;-70
2023/11/22 01:59:55;;;;;;;13.50;13.10;;;5.40;99.90;;;;;;5076252;28;20456;-70
2023/11/22 02:02:22;;;;;;;14.37;13.87;;;5.40;99.90;;;;;;5090216;28;20459;-70
2023/11/22 02:04:49;;;;;;;14.40;13.90;;;5.40;99.90;;;;;;5081166;28;20461;-70
2023/11/22 02:07:16;;;;;;;14.50;14.00;;;5.40;99.90;;;;;;5088539;28;20507;-70
2023/11/22 02:09:45;;;;;;;14.40;13.90;;;5.30;99.90;;;;;;5087192;28;20490;-70
2023/11/22 02:12:14;;;;;;;13.73;13.33;;;5.20;99.90;;;;;;5083888;28;20493;-70
2023/11/22 02:14:40;;;;;;;14.40;13.90;;;5.20;99.90;;;;;;5083130;28;22210;-69
2023/11/22 02:17:07;;;;;;;13.50;13.10;;;5.20;99.90;;;;;;5080049;28;20866;-70
2023/11/22 02:19:34;;;;;;;13.97;13.57;;;5.20;99.90;;;;;;5080167;28;21010;-69
2023/11/22 02:22:02;;;;;;;12.87;12.47;;;5.10;99.90;;;;;;5082647;28;20458;-69
2023/11/22 02:24:30;;;;;;;13.70;13.30;;;5.00;99.90;;;;;;5081317;28;20858;-69
2023/11/22 02:26:56;;;;;;;14.13;13.67;;;4.90;99.90;;;;;;5082758;28;20855;-70
2023/11/22 02:29:23;;;;;;;14.00;13.60;;;4.90;99.90;;;;;;5078567;28;20466;-69
2023/11/22 02:31:51;;;;;;;14.10;13.70;;;4.90;99.90;;;;;;5093440;28;20984;-70
2023/11/22 02:34:19;;;;;;;14.37;13.87;;;4.80;99.90;;;;;;5080195;28;20530;-70
2023/11/22 02:36:47;;;;;;;14.60;14.10;;;4.80;99.90;;;;;;5088516;28;20460;-69
2023/11/22 02:39:14;;;;;;;14.60;14.10;;;4.70;99.90;;;;;;5092850;28;20464;-69
2023/11/22 02:41:42;;;;;;;14.60;14.10;;;4.70;99.90;;;;;;5080925;28;20465;-70
2023/11/22 02:44:09;;;;;;;14.77;14.27;;;4.60;99.90;;;;;;5085755;28;20450;-69
2023/11/22 02:46:37;;;;;;;14.27;13.83;;;4.60;99.90;;;;;;5082449;28;20466;-69
2023/11/22 02:49:06;;;;;;;13.50;13.10;;;4.50;99.90;;;;;;5084602;28;20471;-69
2023/11/22 02:51:32;;;;;;;14.63;14.13;;;4.50;99.90;;;;;;5083449;28;20556;-69
2023/11/22 02:53:59;;;;;;;13.17;12.77;;;4.50;99.90;;;;;;5083545;28;20984;-69
2023/11/22 02:56:26;;;;;;;12.83;12.43;;;4.40;99.90;;;;;;5085648;28;20458;-70
2023/11/22 02:58:54;;;;;;;13.50;13.10;;;4.40;99.90;;;;;;5080915;28;21096;-70
2023/11/22 03:01:21;;;;;;;13.77;13.37;;;4.30;99.90;;;;;;5087970;28;20490;-69
2023/11/22 03:03:48;;;;;;;13.97;13.57;;;4.30;99.90;;;;;;5084971;28;20482;-70
2023/11/22 03:06:14;;;;;;;14.33;13.87;;;4.30;99.90;;;;;;5081284;28;20462;-69
2023/11/22 03:08:42;;;;;;;14.20;13.80;;;4.20;99.90;;;;;;5079037;28;20762;-69
2023/11/22 03:11:09;;;;;;;12.33;12.03;;;4.20;99.90;;;;;;5084518;28;20493;-70
2023/11/22 03:13:36;;;;;;;13.17;12.77;;;4.20;99.90;;;;;;5078751;28;20466;-69
2023/11/22 03:16:04;;;;;;;13.20;12.80;;;4.10;99.90;;;;;;5079613;28;20892;-69
2023/11/22 03:18:32;;;;;;;12.30;12.00;;;4.10;99.90;;;;;;5083148;28;20475;-69
2023/11/22 03:21:01;;;;;;;10.93;10.73;;;4.10;99.90;;;;;;5083292;28;20464;-69
2023/11/22 03:23:27;;;;;;;12.20;11.90;;;4.00;99.90;;;;;;5075581;28;20473;-69
2023/11/22 03:25:55;;;;;;;12.00;11.70;;;4.10;99.90;;;;;;5085839;28;20485;-69
2023/11/22 03:28:22;;;;;;;11.80;11.50;;;4.10;99.90;;;;;;5079591;28;20865;-69
2023/11/22 03:30:50;;;;;;;11.47;11.17;;;4.20;99.90;;;;;;5078706;28;20453;-70
2023/11/22 03:33:18;;;;;;;11.93;11.63;;;4.30;99.90;;;;;;5075385;28;20483;-69
2023/11/22 03:35:44;;;;;;;11.70;11.40;;;4.30;99.90;;;;;;5083139;28;20871;-69
2023/11/22 03:38:12;;;;;;;11.77;11.47;;;4.40;99.90;;;;;;5087206;28;20474;-69
2023/11/22 03:40:39;;;;;;;12.23;11.93;;;4.40;99.90;;;;;;5080652;28;20465;-70
2023/11/22 03:43:09;;;;;;;12.00;11.70;;;4.40;99.90;;;;;;5079578;28;20830;-69
2023/11/22 03:45:36;;;;;;;12.40;12.10;;;4.40;99.90;;;;;;5088493;28;20466;-69
2023/11/22 03:48:03;;;;;;;12.50;12.20;;;4.30;99.90;;;;;;5079247;28;20470;-69
2023/11/22 03:50:31;;;;;;;12.13;11.83;;;4.30;99.90;;;;;;5083111;28;20476;-68
2023/11/22 03:52:59;;;;;;;12.40;12.10;;;4.20;99.90;;;;;;5086270;28;20513;-68
2023/11/22 03:55:26;;;;;;;12.60;12.30;;;4.20;99.90;;;;;;5101538;28;20467;-69
2023/11/22 03:57:53;;;;;;;11.60;11.30;;;4.20;99.90;;;;;;5073451;28;20480;-69
2023/11/22 04:00:20;;;;;;;12.30;12.00;;;4.10;99.90;;;;;;5083446;28;20477;-69
2023/11/22 04:02:47;;;;;;;12.10;11.80;;;4.10;99.90;;;;;;5090192;28;20464;-69
2023/11/22 04:05:15;;;;;;;11.40;11.10;;;4.10;99.90;;;;;;5092266;28;20452;-69
2023/11/22 04:07:43;;;;;;;12.10;11.80;;;4.00;99.90;;;;;;5085574;28;20803;-69
2023/11/22 04:10:10;;;;;;;12.03;11.73;;;4.00;99.90;;;;;;5079500;28;20791;-70
2023/11/22 04:12:37;;;;;;;13.00;12.63;;;4.10;99.90;;;;;;5080229;28;20482;-69
2023/11/22 04:15:08;;;;;;;12.60;12.30;;;4.10;99.90;;;;;;5087006;28;20954;-69
2023/11/22 04:17:37;;;;;;;13.20;12.80;;;4.10;99.90;;;;;;5081209;28;20841;-69
2023/11/22 04:20:08;;;;;;;13.70;13.30;;;4.20;99.90;;;;;;5084362;28;20492;-70
2023/11/22 04:22:35;;;;;;;13.90;13.50;;;4.10;99.90;;;;;;5069728;28;20554;-69
2023/11/22 04:25:05;;;;;;;13.27;12.87;;;4.10;99.90;;;;;;5092007;28;20483;-69
2023/11/22 04:27:32;;;;;;;12.87;12.53;;;4.10;99.90;;;;;;5080893;28;20990;-70
2023/11/22 04:29:59;;;;;;;13.57;13.17;;;4.10;99.90;;;;;;5089422;28;20457;-69
2023/11/22 04:32:26;;;;;;;13.30;12.90;;;4.00;99.90;;;;;;5085429;28;20497;-70
2023/11/22 04:34:53;;;;;;;13.90;13.50;;;4.00;99.90;;;;;;5102768;28;20858;-69
2023/11/22 04:37:20;;;;;;;14.93;14.43;;;4.10;99.90;;;;;;5085443;28;20468;-69
2023/11/22 04:39:52;;;;;;;14.07;13.67;;;4.10;99.90;;;;;;5087027;28;20972;-69
2023/11/22 04:42:20;;;;;;;13.70;13.30;;;4.00;99.90;;;;;;5076066;28;20474;-69
2023/11/22 04:44:47;;;;;;;14.10;13.70;;;3.90;99.90;;;;;;5080940;28;20458;-69
2023/11/22 04:47:14;;;;;;;13.80;13.40;;;3.90;99.90;;;;;;5087847;28;20554;-69
2023/11/22 04:49:41;;;;;;;13.73;13.33;;;3.90;99.90;;;;;;5087724;28;21096;-70
2023/11/22 04:52:07;;;;;;;13.90;13.50;;;3.80;99.90;;;;;;5090181;28;20494;-69
2023/11/22 04:54:34;;;;;;;13.60;13.20;;;3.70;99.90;;;;;;5078980;28;20464;-69
2023/11/22 04:57:01;;;;;;;13.23;12.83;;;3.70;99.90;;;;;;5079579;28;20461;-69
2023/11/22 04:59:29;;;;;;;13.37;12.97;;;3.60;99.90;;;;;;5080545;28;20471;-69
2023/11/22 05:01:56;;;;;;;12.80;12.47;;;3.60;99.90;;;;;;5092249;28;20796;-70
2023/11/22 05:04:23;;;;;;;13.80;13.40;;;3.50;99.90;;;;;;5083077;28;20575;-69
2023/11/22 05:06:50;;;;;;;13.27;12.87;;;3.50;99.90;;;;;;5089297;28;20449;-70
2023/11/22 05:09:18;;;;;;;13.87;13.47;;;3.50;99.90;;;;;;5080914;28;20475;-69
2023/11/22 05:11:45;;;;;;;14.70;14.20;;;3.40;99.90;;;;;;5086209;28;20881;-69
2023/11/22 05:14:13;;;;;;;14.53;14.03;;;3.40;99.90;;;;;;5079104;28;20462;-69
2023/11/22 05:16:41;;;;;;;15.40;14.90;;;3.40;99.90;;;;;;5084214;28;20543;-69
2023/11/22 05:19:08;;;;;;;15.23;14.73;;;3.30;99.90;;;;;;5074690;28;20469;-69
2023/11/22 05:21:35;;;;;;;15.27;14.77;;;3.20;99.90;;;;;;5089226;28;20470;-69
2023/11/22 05:24:02;;;;;;;14.93;14.43;;;3.20;99.90;;;;;;5088947;28;20479;-69
2023/11/22 05:26:29;;;;;;;14.53;14.03;;;3.10;99.90;;;;;;5078339;28;20470;-69
2023/11/22 05:28:57;;;;;;;14.47;13.97;;;3.10;99.90;;;;;;5078645;28;20506;-69
2023/11/22 05:31:23;;;;;;;13.77;13.37;;;3.00;99.90;;;;;;5091647;28;20533;-69
2023/11/22 05:33:51;;;;;;;14.80;14.30;;;3.00;99.90;;;;;;5088636;28;20485;-69
2023/11/22 05:36:18;;;;;;;15.67;15.07;;;2.90;99.90;;;;;;5078645;28;20460;-69
2023/11/22 05:38:45;;;;;;;15.93;15.33;;;2.90;99.90;;;;;;5076506;28;20463;-70
2023/11/22 05:41:12;;;;;;;15.67;15.07;;;3.00;99.90;;;;;;5087275;28;20569;-69
2023/11/22 05:43:39;;;;;;;15.40;14.90;;;2.90;99.90;;;;;;5076817;28;20468;-70
2023/11/22 05:46:06;;;;;;;16.10;15.50;;;2.90;99.90;;;;;;5088989;28;20898;-71
2023/11/22 05:48:34;;;;;;;16.30;15.70;;;2.90;99.90;;;;;;5081391;28;20459;-70
2023/11/22 05:51:02;;;;;;;16.50;15.90;;;2.90;99.90;;;;;;5088835;28;20478;-70
2023/11/22 05:53:30;;;;;;;16.27;15.67;;;2.80;99.90;;;;;;5078055;28;20651;-70
2023/11/22 05:55:57;;;;;;;15.43;14.87;;;2.80;99.90;;;;;;5083510;28;20954;-70
2023/11/22 05:58:24;;;;;;;16.17;15.57;;;2.80;99.90;;;;;;5088454;28;20795;-68
2023/11/22 06:00:50;;;;;;;15.97;15.37;;;2.80;99.90;;;;;;5085100;28;20455;-68
2023/11/22 06:03:17;;;;;;;15.43;14.83;;;2.70;99.90;;;;;;5084462;28;20490;-68
2023/11/22 06:05:45;;;;;;;15.70;15.10;;;2.60;99.90;;;;;;5088246;28;20483;-68
2023/11/22 06:08:13;;;;;;;16.10;15.50;;;2.60;99.90;;;;;;5086083;28;20462;-68
2023/11/22 06:10:41;;;;;;;16.10;15.50;;;2.50;99.90;;;;;;5080578;28;20468;-67
2023/11/22 06:13:08;;;;;;;16.00;15.40;;;2.40;99.90;;;;;;5070040;28;20497;-68
2023/11/22 06:15:35;;;;;;;17.00;16.30;;;2.30;99.90;;;;;;5095647;28;20453;-68
2023/11/22 06:18:02;;;;;;;16.90;16.20;;;2.40;99.90;;;;;;5083479;28;20502;-68
2023/11/22 06:20:29;;;;;;;16.63;16.00;;;2.50;99.90;;;;;;5083585;28;20957;-68
2023/11/22 06:22:56;;;;;;;15.80;15.20;;;2.40;99.90;;;;;;5082628;28;20820;-68
2023/11/22 06:25:25;;;;;;;15.87;15.27;;;2.30;99.90;;;;;;5079957;28;20489;-68
2023/11/22 06:27:51;;;;;;;15.87;15.27;;;2.20;99.90;;;;;;5082272;28;20824;-68
2023/11/22 06:30:19;;;;;;;15.97;15.37;;;2.10;99.90;;;;;;5083391;28;20470;-68
2023/11/22 06:32:46;;;;;;;15.43;14.90;;;2.10;99.90;;;;;;5087962;28;20489;-69
2023/11/22 06:35:14;;;;;;;15.97;15.37;;;2.00;99.90;;;;;;5090574;28;20464;-68
2023/11/22 06:37:41;;;;;;;16.20;15.60;;;1.90;99.90;;;;;;5080741;28;20930;-68
2023/11/22 06:40:09;;;;;;;16.30;15.70;;;1.80;99.90;;;;;;5084764;28;20478;-68
2023/11/22 06:42:37;;;;;;;15.73;15.13;;;1.80;99.90;;;;;;5074316;28;20469;-68
2023/11/22 06:45:06;;;;;;;17.20;16.50;;;1.80;99.90;;;;;;5089948;28;20496;-68
2023/11/22 06:47:33;;;;;;;17.00;16.30;;;1.80;99.90;;;;;;5096004;28;20459;-68
2023/11/22 06:50:00;;;;;;;17.40;16.70;;;1.70;99.90;;;;;;5074433;28;20807;-69
2023/11/22 06:52:27;;;;;;;17.33;16.63;;;1.70;99.90;;;;;;5078156;28;20458;-68
2023/11/22 06:54:54;;;;;;;18.07;17.30;;;1.60;99.90;;;;;;5075583;28;20497;-68
2023/11/22 06:57:28;;;;;;;16.47;15.87;;;1.60;99.90;;;;;;5086494;28;20818;-69
2023/11/22 06:59:56;;;;;;;17.70;17.00;;;1.60;99.90;;;;;;5089198;28;20500;-68
2023/11/22 07:02:23;;;;;;;17.30;16.60;;;1.60;99.90;;;;;;5077429;28;20819;-68
2023/11/22 07:04:49;;;;;;;15.70;15.10;;;1.60;99.90;;;;;;5087300;28;20459;-68
2023/11/22 07:07:16;;;;;;;16.90;16.30;;;1.60;99.90;;;;;;5084058;28;20463;-69
2023/11/22 07:09:44;;;;;;;16.90;16.30;;;1.50;99.90;;;;;;5075711;28;20861;-68
2023/11/22 07:12:11;;;;;;;16.53;15.93;;;1.50;99.90;;;;;;5085758;28;20829;-69
2023/11/22 07:14:38;;;;;;;16.97;16.27;;;1.50;99.90;;;;;;5084286;28;20904;-69
2023/11/22 07:17:06;;;;;;;16.03;15.43;;;1.50;99.90;;;;;;5079306;28;20811;-69
2023/11/22 07:19:34;;;;;;;16.27;15.67;;;1.40;99.90;;;;;;5088691;28;20462;-68
2023/11/22 07:22:04;;;;;;;16.80;16.13;;;1.30;99.90;;;;;;5091649;28;20481;-69
2023/11/22 07:24:34;;;;;;;17.37;16.67;;;1.30;99.90;;;;;;5079227;28;21016;-69
2023/11/22 07:27:01;;;;;;;17.23;16.53;;;1.30;99.90;;;;;;5089339;28;20463;-69
2023/11/22 07:29:29;;;;;;;17.20;16.50;;;1.40;99.90;;;;;;5087743;28;20554;-69
2023/11/22 07:31:56;;;;;;;15.80;15.20;;;1.40;99.90;;;;;;5088059;28;20459;-69
2023/11/22 07:34:24;;;;;;;16.73;16.03;;;1.50;99.90;;;;;;5089979;28;20857;-69
2023/11/22 07:36:51;;;;;;;17.00;16.30;;;1.40;99.90;;;;;;5083464;28;20548;-69
2023/11/22 07:39:19;;;;;;;16.57;15.93;;;1.50;99.90;;;;;;5090555;28;20458;-69
2023/11/22 07:41:48;;;;;;;17.93;17.13;;;1.50;99.90;;;;;;5088986;28;20451;-69
2023/11/22 07:44:16;;;;;;;18.50;17.70;;;1.50;99.90;;;;;;5076532;28;20499;-69
2023/11/22 07:46:44;;;;;;;17.80;17.00;;;1.50;99.90;;;;;;5096283;28;20927;-69
2023/11/22 07:49:11;;;;;;;16.87;16.17;;;1.60;99.90;;;;;;5077118;28;20463;-68
2023/11/22 07:51:39;;;;;;;16.90;16.20;;;1.60;99.90;;;;;;5087028;28;20869;-68
2023/11/22 07:54:06;;;;;;;17.00;16.30;;;1.70;99.90;;;;;;5087990;28;21000;-68
2023/11/22 07:56:33;;;;;;;15.77;15.17;;;1.70;99.90;;;;;;5083558;28;20463;-68
2023/11/22 07:59:00;;;;;;;16.53;15.93;;;1.70;99.90;;;;;;5083134;28;20464;-68
2023/11/22 08:01:29;;;;;;;16.03;15.43;;;1.70;99.90;;;;;;5087596;28;20457;-68
2023/11/22 08:03:56;;;;;;;16.60;16.00;;;1.60;99.90;;;;;;5086181;28;20464;-68
2023/11/22 08:06:23;;;;;;;16.27;15.67;;;1.60;99.90;;;;;;5087764;28;20512;-69
2023/11/22 08:08:53;;;;;;;16.03;15.43;;;1.80;99.90;;;;;;5083426;28;20477;-68
2023/11/22 08:11:20;;;;;;;15.40;14.90;;;2.00;99.90;;;;;;5084688;28;20473;-69
2023/11/22 08:13:48;;;;;;;14.80;14.30;;;2.10;99.90;;;;;;5080229;28;21076;-69
2023/11/22 08:16:15;;;;;;;15.37;14.87;;;2.30;99.90;;;;;;5083655;28;20887;-68
2023/11/22 08:18:42;;;;;;;15.17;14.67;;;2.40;99.90;;;;;;5084387;28;20466;-68
2023/11/22 08:21:10;;;;;;;15.80;15.30;;;2.40;99.90;;;;;;5081019;28;20834;-68
2023/11/22 08:23:36;;;;;;;15.07;14.57;;;2.50;99.90;;;;;;5083051;28;20472;-68
2023/11/22 08:26:06;;;;;;;16.00;15.40;;;2.50;99.90;;;;;;5087624;28;20482;-69
2023/11/22 08:28:34;;;;;;;15.60;15.10;;;2.60;99.90;;;;;;5084317;28;20550;-68
2023/11/22 08:31:01;;;;;;;15.17;14.67;;;2.70;99.90;;;;;;5088165;28;20464;-68
2023/11/22 08:33:28;;;;;;;15.10;14.60;;;2.70;99.90;;;;;;5077956;28;20586;-68
2023/11/22 08:35:58;;;;;;;14.90;14.40;;;2.80;99.90;;;;;;5074306;28;20543;-69
2023/11/22 08:38:26;;;;;;;14.67;14.17;;;2.90;99.90;;;;;;5073242;28;20562;-68
2023/11/22 08:40:55;;;;;;;15.40;14.90;;;2.90;99.90;;;;;;5076421;28;22117;-68
2023/11/22 08:43:25;;;;;;;16.20;15.60;;;3.00;99.90;;;;;;5074406;28;20891;-68
2023/11/22 08:45:52;;;;;;;15.80;15.20;;;3.00;99.90;;;;;;5077222;28;20471;-67
2023/11/22 08:48:19;;;;;;;15.70;15.10;;;3.10;99.90;;;;;;5073452;28;20454;-69
2023/11/22 08:50:48;;;;;;;15.63;15.03;;;3.20;99.90;;;;;;5077624;28;20497;-69
2023/11/22 08:53:15;;;;;;;15.60;15.00;;;3.30;99.90;;;;;;5078858;28;20568;-68
2023/11/22 08:55:43;;;;;;;15.57;14.97;;;3.40;99.90;;;;;;5075301;28;20987;-69
2023/11/22 08:58:11;;;;;;;16.03;15.43;;;3.40;99.90;;;;;;5077526;28;20545;-69
2023/11/22 09:00:41;;;;;;;15.90;15.30;;;3.50;99.90;;;;;;5078708;28;20595;-68
2023/11/22 09:03:08;;;;;;;15.90;15.30;;;3.60;99.90;;;;;;5079957;28;20550;-69
2023/11/22 09:05:36;;;;;;;15.27;14.77;;;3.60;99.90;;;;;;5073152;28;20463;-69
2023/11/22 09:08:04;;;;;;;15.43;14.83;;;3.60;99.90;;;;;;5077635;28;20466;-69
2023/11/22 09:10:30;;;;;;;15.40;14.80;;;3.70;99.90;;;;;;5073429;28;20547;-69
2023/11/22 09:12:59;;;;;;;15.57;14.97;;;3.70;99.90;;;;;;5077839;28;20459;-70
2023/11/22 09:15:29;;;;;;;15.50;14.90;;;3.70;99.90;;;;;;5076578;28;20899;-69
2023/11/22 09:17:57;;;;;;;15.20;14.60;;;3.80;99.90;;;;;;5075893;28;20508;-69
2023/11/22 09:20:25;;;;;;;15.73;15.13;;;3.90;99.90;;;;;;5077115;28;20464;-69
2023/11/22 09:22:53;;;;;;;15.60;15.00;;;3.90;99.90;;;;;;5071663;28;20480;-69
2023/11/22 09:25:22;;;;;;;15.90;15.30;;;4.00;99.90;;;;;;5073470;28;20488;-69
2023/11/22 09:27:51;;;;;;;15.73;15.13;;;4.10;99.90;;;;;;5077743;28;20459;-69
2023/11/22 09:30:33;;;;;;;15.37;14.77;;;4.20;99.90;;;;;;5076015;28;20578;-69
2023/11/22 09:33:01;;;;;;;16.17;15.57;;;4.30;99.90;;;;;;5075214;28;20469;-69
2023/11/22 09:35:29;;;;;;;16.20;15.60;;;4.40;99.90;;;;;;5073644;28;20489;-69
2023/11/22 09:37:58;;;;;;;16.73;16.03;;;4.50;99.90;;;;;;5068901;28;20557;-69
2023/11/22 09:40:25;;;;;;;15.77;15.17;;;4.60;99.90;;;;;;5074159;28;20464;-69
2023/11/22 09:42:52;;;;;;;16.50;15.80;;;4.70;99.90;;;;;;5074576;28;20471;-69
2023/11/22 09:45:21;;;;;;;17.50;16.70;;;4.80;99.90;;;;;;5073552;28;20461;-69
2023/11/22 09:47:49;;;;;;;16.67;15.97;;;4.90;99.90;;;;;;5077725;28;20825;-69
2023/11/22 09:50:20;;;;;;;17.30;16.50;;;5.00;99.90;;;;;;5072476;28;20562;-69
2023/11/22 09:52:52;;;;;;;18.30;17.50;;;5.10;99.90;;;;;;5070553;28;20901;-69
2023/11/22 09:55:22;;;;;;;17.37;16.57;;;5.20;99.90;;;;;;5071051;28;20494;-70
2023/11/22 09:57:50;;;;;;;17.17;16.37;;;5.30;99.90;;;;;;5072737;28;20566;-70
2023/11/22 10:00:20;;;;;;;17.37;16.57;;;5.20;99.90;;;;;;5078346;28;20459;-69
2023/11/22 10:02:49;;;;;;;17.23;16.43;;;5.30;99.90;;;;;;5070239;28;20478;-69
2023/11/22 10:05:19;;;;;;;17.40;16.60;;;5.50;99.90;;;;;;5075127;28;20483;-69
2023/11/22 10:07:48;;;;;;;17.23;16.43;;;5.60;99.90;;;;;;5073580;28;20554;-69
2023/11/22 10:10:18;;;;;;;17.37;16.57;;;5.60;99.90;;;;;;5076268;28;20904;-70
2023/11/22 10:12:45;;;;;;;16.70;16.00;;;5.70;99.90;;;;;;5075528;28;20561;-70
2023/11/22 10:15:18;;;;;;;17.90;17.00;;;5.80;99.90;;;;;;5074894;28;20490;-69
2023/11/22 10:17:55;;;;;;;18.27;17.37;;;5.90;99.90;;;;;;5071061;28;20857;-69
2023/11/22 10:20:25;;;;;;;17.37;16.57;;;6.00;99.90;;;;;;5071840;28;20575;-70
2023/11/22 10:22:53;;;;;;;17.30;16.50;;;6.10;99.90;;;;;;5070744;28;20885;-69
2023/11/22 10:25:22;;;;;;;17.17;16.37;;;6.10;99.90;;;;;;5075535;28;20593;-69
2023/11/22 10:27:51;;;;;;;17.37;16.57;;;6.00;99.90;;;;;;5074517;28;20513;-69
2023/11/22 10:30:18;;;;;;;17.00;16.20;;;6.20;99.90;;;;;;5075240;28;20485;-70
2023/11/22 10:32:47;;;;;;;16.97;16.17;;;6.30;99.90;;;;;;5073984;28;20454;-69
2023/11/22 10:35:15;;;;;;;16.33;15.57;;;6.10;99.90;;;;;;5072929;28;20495;-70
2023/11/22 10:37:45;;;;;;;16.60;15.80;;;6.20;99.90;;;;;;5073442;28;20462;-69
2023/11/22 10:40:14;;;;;;;16.67;15.87;;;6.30;99.90;;;;;;5074893;28;20517;-69
2023/11/22 10:42:43;;;;;;;15.83;15.13;;;6.20;99.90;;;;;;5071969;28;20466;-69
2023/11/22 10:45:09;;;;;;;16.03;15.33;;;6.20;99.90;;;;;;5075407;28;21032;-69
2023/11/22 10:47:39;;;;;;;15.63;14.93;;;6.30;99.90;;;;;;5075599;28;20458;-70
2023/11/22 10:50:08;;;;;;;15.60;14.90;;;6.20;99.90;;;;;;5071810;28;20832;-69
2023/11/22 10:52:36;;;;;;;15.60;14.90;;;6.40;99.90;;;;;;5072711;28;20949;-69
2023/11/22 10:55:07;;;;;;;14.93;14.33;;;6.60;99.90;;;;;;5077666;28;20560;-68
2023/11/22 10:57:37;;;;;;;15.10;14.50;;;7.00;99.90;;;;;;5073808;28;21151;-71
2023/11/22 11:00:07;;;;;;;15.20;14.60;;;7.20;99.90;;;;;;5072138;28;20464;-70
2023/11/22 11:02:40;;;;;;;15.27;14.67;;;7.30;99.90;;;;;;5074506;28;20454;-69
2023/11/22 11:05:17;;;;;;;15.07;14.47;;;7.40;99.90;;;;;;5071870;28;20889;-70
2023/11/22 11:07:49;;;;;;;14.87;14.27;;;7.50;99.90;;;;;;5074661;28;20918;-70
2023/11/22 11:10:20;;;;;;;14.17;13.67;;;7.40;99.90;;;;;;5070181;28;21349;-72
2023/11/22 11:12:47;;;;;;;14.60;14.00;;;7.70;99.90;;;;;;5074963;28;20543;-70
2023/11/22 11:15:17;;;;;;;13.87;13.37;;;7.70;99.90;;;;;;5076205;28;20858;-71
2023/11/22 11:17:44;;;;;;;13.83;13.33;;;7.90;99.90;;;;;;5069372;28;20570;-71
2023/11/22 11:20:13;;;;;;;14.33;13.83;;;8.30;99.90;;;;;;5075170;28;20846;-72
2023/11/22 11:22:40;;;;;;;14.20;13.70;;;8.60;99.90;;;;;;5070816;28;20574;-72
2023/11/22 11:25:08;;;;;;;14.10;13.60;;;8.90;99.90;;;;;;5076751;28;20502;-70
2023/11/22 11:27:38;;;;;;;13.97;13.47;;;9.00;99.90;;;;;;5069020;28;20508;-70
2023/11/22 11:30:44;;;;;;;14.00;13.50;;;9.20;99.90;;;;;;5075804;28;20460;-69
2023/11/22 11:33:12;;;;;;;14.20;13.70;;;9.20;99.90;;;;;;5073763;28;20459;-70
2023/11/22 11:35:40;;;;;;;13.77;13.27;;;9.10;99.90;;;;;;5069555;28;20793;-71
2023/11/22 11:38:09;;;;;;;14.40;13.90;;;8.80;99.90;;;;;;5073898;28;20471;-68
2023/11/22 11:40:36;;;;;;;14.40;13.90;;;8.60;99.90;;;;;;5070952;28;20471;-69
2023/11/22 11:43:06;;;;;;;14.50;14.00;;;8.30;99.90;;;;;;5067101;28;20467;-71
2023/11/22 11:45:39;;;;;;;14.80;14.20;;;8.30;99.90;;;;;;5073214;28;20988;-70
2023/11/22 11:48:07;;;;;;;14.33;13.83;;;8.20;99.90;;;;;;5075641;28;20949;-71
2023/11/22 11:50:35;;;;;;;14.47;13.97;;;8.10;99.90;;;;;;5072100;28;20466;-69
2023/11/22 11:53:02;;;;;;;14.10;13.60;;;8.20;99.90;;;;;;5068307;28;20471;-71
2023/11/22 11:55:29;;;;;;;14.00;13.50;;;8.10;99.90;;;;;;5072959;28;20483;-69
2023/11/22 11:57:57;;;;;;;14.80;14.30;;;8.50;99.90;;;;;;5071923;28;20891;-69
2023/11/22 12:00:28;;;;;;;14.67;14.17;;;8.70;99.90;;;;;;5073238;28;20549;-69
2023/11/22 12:02:55;;;;;;;14.60;14.10;;;8.80;99.90;;;;;;5076390;28;20462;-69
2023/11/22 12:05:25;;;;;;;14.63;14.13;;;8.80;99.90;;;;;;5074414;28;20482;-69
2023/11/22 12:07:52;;;;;;;15.17;14.57;;;9.10;99.90;;;;;;5078266;28;20465;-69
2023/11/22 12:10:21;;;;;;;15.40;14.80;;;9.40;99.90;;;;;;5075744;28;20516;-70
2023/11/22 12:12:48;;;;;;;15.00;14.40;;;9.70;99.90;;;;;;5076670;28;20462;-69
2023/11/22 12:15:15;;;;;;;15.17;14.57;;;9.70;99.90;;;;;;5077562;28;20563;-69
2023/11/22 12:17:43;;;;;;;15.40;14.80;;;9.50;99.90;;;;;;5076488;28;20510;-69
2023/11/22 12:20:13;;;;;;;14.93;14.33;;;9.10;99.90;;;;;;5070082;28;20467;-69
2023/11/22 12:22:40;;;;;;;14.93;14.33;;;9.00;99.90;;;;;;5071206;28;20467;-69
2023/11/22 12:25:08;;;;;;;14.70;14.20;;;8.90;99.90;;;;;;5077154;28;21421;-69
2023/11/22 12:27:39;;;;;;;14.50;14.00;;;8.70;99.90;;;;;;5077238;28;20471;-69
2023/11/22 12:30:08;;;;;;;14.60;14.10;;;8.50;99.90;;;;;;5075197;28;20475;-70
2023/11/22 12:32:35;;;;;;;13.80;13.30;;;8.40;99.90;;;;;;5080449;28;20473;-69
2023/11/22 12:35:07;;;;;;;14.07;13.57;;;8.50;99.90;;;;;;5077360;28;20782;-69
2023/11/22 12:37:35;;;;;;;13.87;13.37;;;8.70;99.90;;;;;;5076186;28;20496;-69
2023/11/22 12:40:11;;;;;;;14.27;13.77;;;9.00;99.90;;;;;;5072858;28;20561;-69